Time;durP1;ratioP1;P1;durP2;ratioP2;P2;SDS_P1;SDS_P2;PMS_P1;PMS_P2;Temp;Humidity;BMP_temperature;BMP_pressure;BME280_temperature;BME280_humidity;BME280_pressure;Samples;Min_cycle;Max_cycle;Signal;HPM_P1;HPM_P2
2022/03/21 00:01:48;;;;;;;7.30;6.00;;;11.60;27.60;;;14.25;26.19;103098.63;5014404;28;20203;-52
2022/03/21 00:04:16;;;;;;;7.20;6.03;;;11.60;27.70;;;14.23;26.27;103095.31;5014385;28;20217;-53
2022/03/21 00:06:43;;;;;;;7.70;6.13;;;11.60;27.80;;;14.21;26.15;103096.41;5001427;28;20694;-53
2022/03/21 00:09:11;;;;;;;6.47;5.87;;;11.50;27.70;;;14.20;26.34;103100.03;4995258;28;20218;-54
2022/03/21 00:11:39;;;;;;;6.77;6.07;;;11.50;27.80;;;14.25;26.27;103092.50;4993787;28;20202;-51
2022/03/21 00:14:07;;;;;;;6.90;5.90;;;11.50;27.90;;;14.26;26.42;103094.19;4994730;28;20199;-54
2022/03/21 00:16:34;;;;;;;7.87;6.53;;;11.50;28.00;;;14.19;26.53;103093.06;4994173;28;20222;-51
2022/03/21 00:19:03;;;;;;;8.43;6.30;;;11.50;28.00;;;14.13;26.75;103088.31;4994546;28;20214;-55
2022/03/21 00:21:31;;;;;;;8.77;6.57;;;11.50;28.10;;;14.08;26.58;103074.66;5003794;28;20191;-53
2022/03/21 00:23:58;;;;;;;8.90;6.90;;;11.50;28.10;;;14.02;26.63;103080.53;5003776;28;20206;-54
2022/03/21 00:26:25;;;;;;;8.63;6.60;;;11.40;28.10;;;13.97;26.87;103082.75;4992958;28;20200;-52
2022/03/21 00:28:52;;;;;;;7.47;6.07;;;11.40;28.20;;;13.95;26.85;103084.69;4994402;28;20188;-54
2022/03/21 00:31:20;;;;;;;9.93;6.53;;;11.40;28.20;;;13.93;26.83;103087.47;4996148;28;20206;-53
2022/03/21 00:33:47;;;;;;;9.60;7.00;;;11.30;28.30;;;13.92;27.09;103090.25;5013813;28;20274;-54
2022/03/21 00:36:16;;;;;;;8.40;6.00;;;11.30;28.40;;;13.90;27.16;103092.22;5013446;28;20266;-54
2022/03/21 00:39:04;;;;;;;7.60;6.33;;;11.30;28.50;;;13.88;27.42;103094.19;5005413;28;20204;-51
2022/03/21 00:41:33;;;;;;;7.40;6.53;;;11.20;28.40;;;13.89;27.08;103093.19;4994603;28;20655;-50
2022/03/21 00:44:00;;;;;;;7.20;6.40;;;11.20;28.50;;;13.89;27.05;103093.19;4994284;28;20271;-51
2022/03/21 00:46:27;;;;;;;8.17;6.90;;;11.20;28.70;;;13.86;27.06;103091.66;4993714;28;20272;-51
2022/03/21 00:48:55;;;;;;;8.67;6.40;;;11.10;28.60;;;13.81;27.13;103098.34;4993883;28;20214;-51
2022/03/21 00:51:24;;;;;;;7.53;6.40;;;11.10;28.70;;;13.74;27.05;103091.94;4994058;28;20562;-52
2022/03/21 00:53:51;;;;;;;8.43;6.43;;;11.00;28.70;;;13.65;27.21;103100.66;4993927;28;20520;-52
2022/03/21 00:56:18;;;;;;;8.87;7.00;;;11.00;28.70;;;13.58;27.41;103093.28;5010894;28;20202;-52
2022/03/21 00:58:45;;;;;;;8.20;6.90;;;11.00;28.90;;;13.54;27.32;103091.03;5012848;28;20199;-51
2022/03/21 01:01:13;;;;;;;8.30;6.63;;;10.90;28.90;;;13.49;27.35;103096.75;5016471;28;20198;-54
2022/03/21 01:03:41;;;;;;;8.43;7.27;;;10.90;28.90;;;13.47;27.67;103089.91;5018185;28;20704;-53
2022/03/21 01:06:08;;;;;;;7.83;7.03;;;10.80;29.40;;;13.41;27.49;103086.00;5013269;28;20192;-51
2022/03/21 01:08:38;;;;;;;9.30;8.40;;;10.80;29.00;;;13.37;27.75;103091.69;5013516;28;20202;-52
2022/03/21 01:11:05;;;;;;;6.90;6.20;;;10.80;29.10;;;13.28;27.64;103088.06;5009934;28;20195;-51
2022/03/21 01:13:32;;;;;;;7.10;6.40;;;10.70;29.10;;;13.21;27.73;103088.72;4993871;28;20188;-52
2022/03/21 01:15:59;;;;;;;9.23;7.37;;;10.70;29.20;;;13.16;27.99;103086.47;4993566;28;20313;-52
2022/03/21 01:18:29;;;;;;;9.07;7.90;;;10.60;29.20;;;13.10;28.00;103092.28;4993343;28;20212;-53
2022/03/21 01:20:56;;;;;;;9.20;7.00;;;10.60;29.80;;;13.08;27.98;103094.22;4993827;28;20686;-54
2022/03/21 01:23:23;;;;;;;7.20;6.47;;;10.60;29.30;;;13.05;28.25;103083.88;5000146;28;20188;-53
2022/03/21 01:25:52;;;;;;;10.47;7.33;;;10.60;29.30;;;13.01;28.02;103082.47;5000251;28;20201;-51
2022/03/21 01:28:19;;;;;;;8.77;7.33;;;10.50;29.30;;;12.96;27.90;103084.66;5008542;28;20270;-51
2022/03/21 01:30:47;;;;;;;8.00;7.20;;;10.50;29.40;;;12.92;28.19;103096.50;5022466;28;20618;-53
2022/03/21 01:33:14;;;;;;;7.50;6.60;;;10.40;29.50;;;12.91;28.35;103095.63;5023757;28;20257;-54
2022/03/21 01:35:41;;;;;;;8.23;7.30;;;10.40;29.50;;;12.86;28.57;103097.84;5025239;28;20195;-54
2022/03/21 01:38:09;;;;;;;10.23;7.47;;;10.40;29.60;;;12.88;28.52;103092.44;5040787;28;20616;-52
2022/03/21 01:40:36;;;;;;;10.17;7.60;;;10.30;29.60;;;12.82;28.42;103092.94;5026364;28;20214;-53
2022/03/21 01:43:10;;;;;;;8.83;7.03;;;10.30;29.80;;;12.76;28.63;103089.03;5026232;28;20187;-53
2022/03/21 01:45:37;;;;;;;10.37;7.50;;;10.30;29.90;;;12.74;28.48;103082.22;5009386;28;20200;-53
2022/03/21 01:48:05;;;;;;;10.10;8.37;;;10.30;30.40;;;12.66;28.84;103087.31;5006133;28;20564;-54
2022/03/21 01:50:33;;;;;;;9.17;7.33;;;10.20;30.00;;;12.63;28.83;103093.69;5012421;28;20663;-51
2022/03/21 01:55:48;;;;;;;10.33;7.53;;;10.10;30.00;;;12.56;28.85;103097.81;5028681;28;20179;-52
2022/03/21 01:58:17;;;;;;;7.67;6.87;;;10.10;30.10;;;12.56;28.75;103102.25;5023236;28;20217;-51
2022/03/21 02:00:45;;;;;;;8.10;7.03;;;10.10;30.20;;;12.58;29.18;103095.03;5020399;28;20294;-53
2022/03/21 02:03:14;;;;;;;9.00;7.60;;;10.10;30.40;;;12.56;29.24;103091.69;5032820;28;20273;-50
2022/03/21 02:05:43;;;;;;;9.87;7.43;;;10.10;30.50;;;12.54;28.90;103093.63;5019495;28;20202;-53
2022/03/21 02:08:11;;;;;;;9.53;7.43;;;10.00;30.40;;;12.55;28.64;103101.41;5019123;28;20219;-52
2022/03/21 02:10:38;;;;;;;7.90;6.73;;;10.00;30.50;;;12.57;28.95;103098.66;5019395;28;20191;-53
2022/03/21 02:13:07;;;;;;;8.40;7.43;;;10.00;30.60;;;12.54;28.91;103091.81;5034682;28;20206;-53
2022/03/21 02:15:35;;;;;;;9.80;7.03;;;10.00;30.70;;;12.50;28.92;103092.22;5034811;28;20204;-53
2022/03/21 02:18:04;;;;;;;8.03;6.70;;;10.00;30.70;;;12.46;29.38;103099.53;5018268;28;20226;-51
2022/03/21 02:20:36;;;;;;;7.73;6.93;;;10.00;30.90;;;12.44;28.93;103098.00;5019381;28;20689;-51
2022/03/21 02:23:11;;;;;;;9.20;7.00;;;9.90;31.70;;;12.44;29.48;103098.00;5019410;28;20195;-52
2022/03/21 02:25:42;;;;;;;8.73;7.50;;;9.90;31.90;;;12.43;29.20;103091.06;5019381;28;20195;-54
2022/03/21 02:28:13;;;;;;;10.50;8.20;;;9.90;31.90;;;12.40;29.50;103093.94;5018954;28;20246;-54
2022/03/21 02:30:43;;;;;;;8.40;7.37;;;9.90;32.00;;;12.43;29.10;103085.78;5019149;28;20216;-53
2022/03/21 02:33:12;;;;;;;9.57;7.97;;;9.90;32.00;;;12.41;29.77;103082.41;5011390;28;20196;-52
2022/03/21 02:35:45;;;;;;;8.83;7.37;;;9.80;32.00;;;12.43;29.36;103080.50;4996306;28;20192;-50
2022/03/21 02:38:13;;;;;;;8.03;7.23;;;9.90;32.10;;;12.40;29.63;103086.00;4995983;28;20581;-51
2022/03/21 02:40:42;;;;;;;9.93;7.23;;;9.90;32.00;;;12.39;29.40;103079.88;4996317;28;20223;-50
2022/03/21 02:43:10;;;;;;;8.83;7.53;;;9.90;32.20;;;12.44;29.62;103082.13;4996033;28;20192;-53
2022/03/21 02:45:37;;;;;;;8.20;7.37;;;9.90;32.20;;;12.44;29.74;103079.50;4996835;28;20216;-52
2022/03/21 02:48:05;;;;;;;8.83;7.93;;;9.90;32.10;;;12.47;29.54;103073.97;4995713;28;20298;-50
2022/03/21 02:50:41;;;;;;;9.07;7.27;;;9.90;32.10;;;12.44;29.57;103083.00;5012469;28;20549;-52
2022/03/21 02:53:10;;;;;;;8.83;7.83;;;9.90;32.20;;;12.47;29.70;103077.47;5016192;28;20202;-51
2022/03/21 02:55:42;;;;;;;9.77;7.37;;;9.90;32.10;;;12.47;29.56;103076.59;5016064;28;20191;-50
2022/03/21 02:58:09;;;;;;;10.20;7.47;;;10.00;31.30;;;12.45;29.69;103073.25;5015561;28;20232;-50
2022/03/21 03:00:37;;;;;;;9.00;7.23;;;9.90;32.10;;;12.48;29.30;103078.28;5015703;28;20217;-51
2022/03/21 03:03:04;;;;;;;9.53;7.90;;;9.90;32.10;;;12.47;29.58;103081.91;5015782;28;20211;-51
2022/03/21 03:05:31;;;;;;;9.90;7.80;;;9.90;32.10;;;12.50;29.12;103082.50;5010854;28;20188;-51
2022/03/21 03:07:59;;;;;;;8.37;7.20;;;9.90;32.20;;;12.54;29.54;103077.75;4995519;28;20211;-51
2022/03/21 03:10:30;;;;;;;11.03;7.97;;;10.00;31.30;;;12.54;29.21;103078.63;4995990;28;20288;-50
2022/03/21 03:12:58;;;;;;;7.93;6.80;;;10.00;31.30;;;12.51;29.01;103083.31;4996273;28;20192;-50
2022/03/21 03:15:26;;;;;;;8.50;7.47;;;10.00;31.30;;;12.56;29.69;103079.31;4996132;28;20192;-53
2022/03/21 03:17:53;;;;;;;9.03;7.43;;;10.00;31.30;;;12.58;29.14;103073.88;4995270;28;20760;-51
2022/03/21 03:20:20;;;;;;;10.40;7.90;;;10.00;31.30;;;12.62;29.55;103075.31;4995575;28;20232;-50
2022/03/21 03:22:49;;;;;;;9.53;8.07;;;10.00;31.20;;;12.58;29.51;103077.38;4995605;28;20204;-53
2022/03/21 03:25:16;;;;;;;11.40;7.70;;;10.00;31.30;;;12.57;29.65;103078.38;4995288;28;20617;-52
2022/03/21 03:27:44;;;;;;;8.80;7.60;;;10.00;31.30;;;12.53;29.67;103076.06;4996385;28;20219;-51
2022/03/21 03:30:13;;;;;;;8.40;7.53;;;10.00;31.30;;;12.51;29.63;103076.22;4995685;28;20195;-50
2022/03/21 03:32:40;;;;;;;9.27;7.40;;;10.00;31.40;;;12.48;29.78;103078.28;5007280;28;20557;-53
2022/03/21 03:35:09;;;;;;;9.57;7.90;;;10.00;31.40;;;12.48;29.54;103073.81;5015236;28;20195;-53
2022/03/21 03:37:37;;;;;;;8.70;7.80;;;10.00;31.50;;;12.53;29.62;103076.06;5009668;28;20212;-51
2022/03/21 03:40:06;;;;;;;9.90;7.33;;;10.00;31.60;;;12.46;29.58;103074.91;4995414;28;20249;-50
2022/03/21 03:42:33;;;;;;;9.17;7.90;;;10.00;31.50;;;12.51;29.43;103078.00;4995290;28;20192;-54
2022/03/21 03:45:01;;;;;;;9.30;8.10;;;10.00;31.60;;;12.54;29.77;103077.75;4994916;28;20556;-51
2022/03/21 03:47:29;;;;;;;12.13;8.00;;;10.00;31.60;;;12.55;29.88;103074.19;4994676;28;20220;-52
2022/03/21 03:49:58;;;;;;;8.43;7.27;;;10.00;31.70;;;12.60;29.84;103087.84;4995008;28;20267;-52
2022/03/21 03:52:25;;;;;;;11.10;7.73;;;10.00;31.70;;;12.61;29.87;103081.56;4995101;28;20188;-50
2022/03/21 03:54:52;;;;;;;9.43;7.93;;;10.00;31.80;;;12.65;29.73;103080.31;5011319;28;20195;-53
2022/03/21 03:57:20;;;;;;;8.87;7.53;;;10.00;31.80;;;12.68;29.73;103080.06;5014241;28;20294;-49
2022/03/21 03:59:48;;;;;;;8.17;7.23;;;10.10;31.80;;;12.73;29.59;103084.00;5014493;28;20195;-51
2022/03/21 04:02:15;;;;;;;8.60;7.20;;;10.00;31.80;;;12.78;29.78;103086.25;5014653;28;20625;-52
2022/03/21 04:04:44;;;;;;;9.83;7.50;;;10.10;31.80;;;12.76;29.60;103082.91;5014617;28;20241;-50
2022/03/21 04:07:11;;;;;;;9.77;8.17;;;10.10;31.80;;;12.77;29.44;103080.13;5014165;28;20215;-52
2022/03/21 04:09:39;;;;;;;9.17;7.63;;;10.10;31.80;;;12.80;29.43;103086.97;5011124;28;20267;-52
2022/03/21 04:12:07;;;;;;;10.57;8.30;;;10.10;31.90;;;12.83;29.42;103084.91;4994940;28;20196;-53
2022/03/21 04:14:35;;;;;;;9.10;8.00;;;10.10;31.90;;;12.86;29.60;103086.41;4994926;28;20574;-52
2022/03/21 04:17:03;;;;;;;8.67;7.63;;;10.10;31.80;;;12.82;29.31;103077.94;4994149;28;20225;-54
2022/03/21 04:19:30;;;;;;;15.50;8.17;;;10.10;32.40;;;12.80;29.38;103079.03;4995669;28;20195;-51
2022/03/21 04:21:59;;;;;;;9.03;7.73;;;10.10;31.80;;;12.84;29.79;103086.56;4994501;28;20659;-50
2022/03/21 04:24:26;;;;;;;11.80;8.60;;;10.10;31.90;;;12.90;29.68;103093.13;4994886;28;20642;-53
2022/03/21 04:26:54;;;;;;;9.27;7.97;;;10.20;32.00;;;12.96;29.26;103087.31;4994221;28;20211;-51
2022/03/21 04:29:21;;;;;;;9.80;7.50;;;10.20;32.00;;;13.01;29.37;103090.41;4994271;28;20195;-52
2022/03/21 04:31:48;;;;;;;9.47;7.60;;;10.20;32.10;;;13.05;29.39;103096.28;5000181;28;20685;-55
2022/03/21 04:34:15;;;;;;;9.13;7.90;;;10.20;32.10;;;13.06;29.54;103095.31;5013817;28;20191;-51
2022/03/21 04:36:43;;;;;;;13.80;8.30;;;10.20;31.90;;;13.03;29.20;103092.91;5013596;28;20207;-53
2022/03/21 04:39:11;;;;;;;10.27;8.07;;;10.30;32.00;;;13.00;29.55;103095.84;5013694;28;20204;-54
2022/03/21 04:41:39;;;;;;;10.63;8.50;;;10.20;32.00;;;12.97;29.42;103096.94;5013150;28;20681;-51
2022/03/21 04:44:06;;;;;;;12.50;7.90;;;10.20;31.90;;;12.93;29.60;103099.97;4995069;28;20195;-52
2022/03/21 04:46:33;;;;;;;8.63;7.73;;;10.20;32.10;;;12.87;29.67;103106.63;4993687;28;20208;-54
2022/03/21 04:49:01;;;;;;;13.23;9.17;;;10.20;32.00;;;12.81;29.85;103104.50;4994217;28;20226;-52
2022/03/21 04:51:28;;;;;;;15.87;9.33;;;10.20;32.10;;;12.73;29.92;103110.44;4994147;28;20610;-52
2022/03/21 04:53:56;;;;;;;10.80;9.40;;;10.10;32.00;;;12.57;30.14;103110.06;4993822;28;20220;-52
2022/03/21 04:56:24;;;;;;;10.27;9.13;;;10.00;32.00;;;12.51;29.77;103110.56;5008135;28;20192;-52
2022/03/21 04:58:52;;;;;;;9.17;8.27;;;10.00;32.10;;;12.52;30.27;103111.41;5004724;28;20194;-54
2022/03/21 05:01:19;;;;;;;9.90;7.90;;;10.00;32.30;;;12.54;29.95;103117.38;5013468;28;20230;-52
2022/03/21 05:03:47;;;;;;;9.17;8.10;;;10.00;32.50;;;12.55;29.88;103114.59;5013560;28;20199;-52
2022/03/21 05:06:16;;;;;;;10.53;8.47;;;10.00;32.40;;;12.51;30.05;103117.63;5012781;28;20271;-52
2022/03/21 05:08:44;;;;;;;9.73;8.70;;;9.90;33.30;;;12.45;30.33;103126.09;5013403;28;20198;-53
2022/03/21 05:11:11;;;;;;;10.27;9.10;;;9.90;33.30;;;12.42;29.96;103131.63;5013646;28;20553;-53
2022/03/21 05:13:40;;;;;;;8.97;8.03;;;9.90;33.40;;;12.33;30.22;103132.38;5012237;28;20199;-54
2022/03/21 05:16:08;;;;;;;11.20;8.13;;;9.80;33.40;;;12.32;30.34;103125.41;4996963;28;20287;-51
2022/03/21 05:18:35;;;;;;;11.27;9.50;;;9.80;34.20;;;12.31;30.56;103129.88;4993801;28;20195;-51
2022/03/21 05:21:04;;;;;;;14.23;9.13;;;9.80;33.70;;;12.34;30.33;103134.06;4993593;28;20227;-53
2022/03/21 05:31:51;;;;;;;10.27;8.50;;;9.70;33.70;;;12.34;30.15;103134.88;5008827;28;20507;-53
2022/03/21 05:37:05;;;;;;;11.83;9.67;;;9.70;33.80;;;12.19;30.42;103136.97;5015271;28;20219;-53
2022/03/21 05:39:33;;;;;;;10.27;8.43;;;9.70;33.90;;;12.15;30.83;103146.13;5014770;28;20195;-51
2022/03/21 05:42:00;;;;;;;15.10;9.37;;;9.60;33.90;;;12.13;30.73;103141.94;5019640;28;20230;-52
2022/03/21 05:44:29;;;;;;;12.00;9.97;;;9.60;33.90;;;12.07;30.94;103140.66;5021064;28;20195;-52
2022/03/21 05:46:56;;;;;;;10.20;8.90;;;9.50;34.00;;;12.02;30.44;103140.19;5021215;28;20231;-52
2022/03/21 05:49:23;;;;;;;11.10;8.77;;;9.50;34.10;;;11.97;30.64;103139.72;5014417;28;20187;-52
2022/03/21 05:51:51;;;;;;;11.47;9.33;;;9.50;34.30;;;11.97;30.66;103146.78;5015216;28;20219;-52
2022/03/21 05:54:18;;;;;;;12.57;9.13;;;9.40;34.30;;;11.97;30.62;103137.09;5014960;28;20201;-52
2022/03/21 05:56:47;;;;;;;11.73;8.90;;;9.40;34.50;;;11.96;30.91;103140.66;5014276;28;20306;-51
2022/03/21 06:02:01;;;;;;;12.53;9.30;;;9.40;34.70;;;11.99;31.42;103143.06;5012482;28;20226;-49
2022/03/21 06:04:29;;;;;;;12.77;8.93;;;9.40;34.90;;;12.02;31.32;103153.38;5012306;28;20686;-52
2022/03/21 06:06:56;;;;;;;11.70;8.67;;;9.40;35.00;;;12.08;31.58;103141.47;5010941;28;20567;-51
2022/03/21 06:09:29;;;;;;;13.17;9.63;;;9.40;35.00;;;12.11;31.30;103155.28;5015630;28;20195;-53
2022/03/21 06:11:56;;;;;;;12.27;8.73;;;9.50;35.10;;;12.19;31.31;103158.09;5016307;28;20187;-54
2022/03/21 06:14:24;;;;;;;12.80;8.80;;;9.50;35.10;;;12.29;31.04;103167.94;5015289;28;20283;-51
2022/03/21 06:16:51;;;;;;;12.10;9.60;;;9.50;35.30;;;12.36;31.55;103162.00;5018025;28;20233;-53
2022/03/21 06:19:20;;;;;;;13.63;9.87;;;9.60;35.30;;;12.46;31.38;103164.72;5017262;28;20247;-55
2022/03/21 06:21:47;;;;;;;12.00;9.00;;;9.60;35.40;;;12.54;30.60;103167.59;5000634;28;20216;-54
2022/03/21 06:24:15;;;;;;;11.13;8.77;;;9.70;35.20;;;12.58;30.89;103166.34;5000835;28;20200;-53
2022/03/21 06:26:43;;;;;;;13.37;9.73;;;9.70;35.10;;;12.57;30.61;103167.34;5000922;28;20218;-55
2022/03/21 06:29:10;;;;;;;12.37;9.90;;;9.80;35.10;;;12.46;30.71;103159.44;5013080;28;20195;-54
2022/03/21 06:31:38;;;;;;;11.50;9.77;;;9.70;34.70;;;12.39;31.21;103163.56;5021040;28;20286;-54
2022/03/21 06:34:05;;;;;;;12.97;10.03;;;9.80;34.90;;;12.38;31.38;103161.91;5021097;28;20207;-54
2022/03/21 06:36:34;;;;;;;13.03;9.83;;;9.70;34.90;;;12.42;30.79;103165.94;5022995;28;20283;-56
2022/03/21 06:39:02;;;;;;;10.93;9.57;;;9.80;35.00;;;12.43;30.77;103175.56;5020898;28;20255;-53
2022/03/21 06:41:29;;;;;;;10.73;9.60;;;9.70;34.80;;;12.46;30.41;103177.94;5020490;28;20294;-55
2022/03/21 06:43:57;;;;;;;13.73;9.63;;;9.80;34.80;;;12.42;31.10;103169.44;5020005;28;20187;-54
2022/03/21 06:46:24;;;;;;;11.23;9.90;;;9.80;34.90;;;12.42;31.03;103179.16;5019136;28;20211;-55
2022/03/21 06:48:52;;;;;;;11.70;10.47;;;9.80;34.90;;;12.37;31.30;103173.41;5019757;28;20191;-55
2022/03/21 06:51:25;;;;;;;12.10;9.73;;;9.80;34.90;;;12.36;31.30;103182.31;5019433;28;20226;-52
2022/03/21 06:53:54;;;;;;;12.13;9.43;;;9.80;34.80;;;12.29;31.18;103178.50;5019206;28;20251;-54
2022/03/21 06:56:21;;;;;;;13.73;11.07;;;9.80;34.80;;;12.34;30.95;103186.91;5020469;28;20196;-53
2022/03/21 06:58:49;;;;;;;12.87;10.07;;;9.80;35.00;;;12.46;31.07;103188.50;5020021;28;20259;-52
2022/03/21 07:01:16;;;;;;;13.07;10.23;;;9.80;35.10;;;12.61;30.95;103195.16;5021905;28;20216;-50
2022/03/21 07:03:44;;;;;;;10.80;9.63;;;9.80;35.10;;;12.81;30.78;103197.00;5023838;28;20197;-54
2022/03/21 07:06:11;;;;;;;13.87;10.33;;;9.90;35.10;;;13.08;30.40;103193.84;5022810;28;20286;-54
2022/03/21 07:08:39;;;;;;;11.67;10.00;;;10.00;34.40;;;13.29;30.36;103203.44;5010274;28;20283;-53
2022/03/21 07:11:12;;;;;;;12.77;9.53;;;10.20;34.30;;;13.48;29.86;103198.25;5002378;28;20255;-54
2022/03/21 07:13:40;;;;;;;11.50;10.27;;;10.30;33.70;;;13.74;29.37;103203.09;5002206;28;20223;-56
2022/03/21 07:16:09;;;;;;;13.00;10.90;;;10.50;33.30;;;13.87;29.18;103201.03;5005580;28;20231;-54
2022/03/21 07:18:37;;;;;;;13.43;10.30;;;10.80;32.80;;;13.97;28.98;103215.13;5013219;28;20203;-51
2022/03/21 07:21:06;;;;;;;13.13;10.90;;;10.90;32.30;;;14.15;28.79;103214.34;5002606;28;20314;-51
2022/03/21 07:23:34;;;;;;;10.63;9.53;;;11.20;32.20;;;14.49;28.84;103209.53;5016447;28;20293;-51
2022/03/21 07:26:02;;;;;;;11.80;9.07;;;11.40;32.30;;;14.84;28.09;103208.94;5016379;28;20230;-50
2022/03/21 07:28:31;;;;;;;12.23;10.67;;;11.60;31.60;;;15.07;27.53;103206.84;5000874;28;20559;-52
2022/03/21 07:31:18;;;;;;;12.77;9.93;;;11.90;30.70;;;15.19;27.11;103211.00;5002272;28;20180;-54
2022/03/21 07:33:46;;;;;;;14.83;10.33;;;12.20;29.90;;;15.30;27.15;103209.00;5008997;28;20195;-52
2022/03/21 07:36:13;;;;;;;12.17;10.87;;;12.40;29.60;;;15.56;26.86;103209.22;5014705;28;20221;-51
2022/03/21 07:38:40;;;;;;;13.50;10.87;;;12.60;29.50;;;15.95;26.52;103218.66;5011236;28;20654;-52
2022/03/21 07:41:08;;;;;;;11.53;9.93;;;12.80;29.30;;;16.28;25.87;103212.69;5016061;28;20226;-55
2022/03/21 07:43:37;;;;;;;11.80;10.60;;;13.10;29.00;;;16.51;25.48;103214.91;5017638;28;20197;-53
2022/03/21 07:48:52;;;;;;;11.20;9.87;;;13.60;28.40;;;16.95;25.20;103211.31;5007060;28;20187;-52
2022/03/21 07:51:20;;;;;;;12.70;11.27;;;13.80;28.00;;;17.05;25.14;103206.75;5006631;28;20191;-54
2022/03/21 07:53:47;;;;;;;12.30;10.60;;;14.00;27.50;;;17.25;24.50;103208.22;5007339;28;20204;-52
2022/03/21 07:56:21;;;;;;;12.77;11.10;;;14.20;27.50;;;17.54;24.74;103208.72;5000957;28;20562;-51
2022/03/21 07:58:49;;;;;;;11.60;10.40;;;14.40;27.60;;;17.87;24.43;103203.53;5006614;28;20246;-52
2022/03/21 08:01:18;;;;;;;11.60;10.50;;;14.60;27.40;;;18.20;23.70;103205.28;5000316;28;20219;-51
2022/03/21 08:03:46;;;;;;;14.03;11.37;;;14.80;27.00;;;18.34;23.59;103212.66;5015382;28;20297;-54
2022/03/21 08:06:14;;;;;;;13.53;11.10;;;15.00;26.70;;;18.38;23.64;103207.78;5010986;28;20188;-53
2022/03/21 08:08:41;;;;;;;12.93;10.50;;;15.20;26.50;;;18.60;23.53;103208.03;5012860;28;20195;-52
2022/03/21 08:11:09;;;;;;;13.50;10.43;;;15.30;26.70;;;18.85;23.22;103215.00;5011228;28;20198;-53
2022/03/21 08:13:38;;;;;;;12.17;10.27;;;15.50;26.50;;;19.13;23.33;103210.16;5001675;28;20230;-54
2022/03/21 08:16:07;;;;;;;13.40;11.93;;;15.70;26.70;;;19.49;22.57;103213.28;5001687;28;20266;-51
2022/03/21 08:18:40;;;;;;;13.67;10.53;;;15.90;26.20;;;19.62;22.32;103212.69;5000679;28;20510;-53
2022/03/21 08:21:08;;;;;;;14.47;10.83;;;16.10;25.90;;;19.63;22.40;103212.56;5000464;28;20204;-52
2022/03/21 08:23:36;;;;;;;14.50;10.30;;;16.20;25.50;;;19.88;22.53;103214.09;4998770;28;21152;-55
2022/03/21 08:26:03;;;;;;;12.37;10.87;;;16.40;25.80;;;20.10;22.10;103210.63;5003818;28;20317;-54
2022/03/21 08:28:31;;;;;;;11.90;10.70;;;16.60;25.80;;;20.46;21.95;103215.44;5003757;28;20238;-52
2022/03/21 08:30:58;;;;;;;12.07;10.77;;;16.80;25.40;;;20.69;21.61;103217.09;5006184;28;20716;-57
2022/03/21 08:33:27;;;;;;;14.13;11.50;;;17.00;25.60;;;21.04;21.24;103215.59;5004104;28;20316;-64
2022/03/21 08:35:55;;;;;;;12.87;11.57;;;17.20;25.20;;;21.39;21.25;103209.56;5008036;28;20238;-56
2022/03/21 08:38:30;;;;;;;13.53;11.93;;;17.50;25.00;;;21.82;20.99;103209.72;5005813;28;20235;-53
2022/03/21 08:40:58;;;;;;;15.53;13.93;;;17.80;25.20;;;22.27;20.11;103213.97;5004949;28;20274;-55
2022/03/21 08:43:27;;;;;;;13.40;12.00;;;18.10;24.50;;;22.61;19.92;103211.41;5005258;28;20356;-55
2022/03/21 08:45:55;;;;;;;12.63;10.83;;;18.40;24.50;;;22.82;19.94;103208.72;5001073;28;20230;-49
2022/03/21 08:49:23;;;;;;;12.50;11.30;;;18.70;24.00;;;23.07;19.64;103206.41;5003151;28;20243;-52
2022/03/21 08:51:13;;;;;;;13.13;11.83;;;19.00;24.10;;;23.34;18.92;103197.50;5004994;28;20196;-53
2022/03/21 08:53:41;;;;;;;12.77;11.27;;;19.20;23.40;;;23.32;18.92;103204.94;5000060;28;20202;-52
2022/03/21 08:56:08;;;;;;;11.87;10.67;;;19.30;22.80;;;23.16;19.23;103202.53;4999348;28;20199;-56
2022/03/21 08:58:36;;;;;;;11.80;10.63;;;19.40;23.00;;;23.51;19.20;103194.28;5003029;28;20234;-50
2022/03/21 09:01:03;;;;;;;13.80;12.33;;;19.60;23.40;;;23.83;18.51;103203.53;5002457;28;20203;-54
2022/03/21 09:03:31;;;;;;;14.50;13.10;;;19.70;22.70;;;24.01;18.68;103211.84;5002416;28;20219;-50
2022/03/21 09:06:00;;;;;;;13.30;11.90;;;19.90;23.00;;;24.40;17.96;103207.63;5002510;28;20677;-50
2022/03/21 09:08:29;;;;;;;13.30;11.90;;;20.10;22.90;;;24.71;18.08;103195.22;4998678;28;20590;-50
2022/03/21 09:10:56;;;;;;;13.67;11.47;;;20.30;22.70;;;24.95;17.85;103198.31;4997560;28;20206;-55
2022/03/21 09:13:24;;;;;;;11.87;10.77;;;20.50;22.50;;;25.26;17.77;103195.78;4996700;28;20214;-51
2022/03/21 09:15:59;;;;;;;13.33;11.97;;;20.80;22.60;;;25.59;17.62;103195.69;5001078;28;21612;-55
2022/03/21 09:18:27;;;;;;;13.70;12.33;;;21.10;22.30;;;25.90;17.38;103198.44;5000045;28;20242;-55
2022/03/21 09:20:56;;;;;;;12.70;11.43;;;21.40;22.10;;;26.13;17.42;103201.47;5005772;28;20280;-48
2022/03/21 09:23:23;;;;;;;14.30;12.90;;;21.60;21.70;;;26.37;17.11;103199.84;5003132;28;20662;-49
2022/03/21 09:25:52;;;;;;;13.33;12.00;;;21.80;21.60;;;26.69;17.17;103205.00;4963996;28;20259;-52
2022/03/21 09:28:20;;;;;;;14.63;12.03;;;22.10;21.90;;;26.91;16.11;103196.50;5006961;28;20253;-50
2022/03/21 09:30:47;;;;;;;14.37;12.97;;;22.30;21.20;;;27.15;15.95;103201.03;4997507;28;20223;-51
2022/03/21 09:33:15;;;;;;;13.27;12.03;;;22.50;21.10;;;27.14;15.74;103202.94;5005009;28;20658;-53
2022/03/21 09:35:47;;;;;;;14.03;12.70;;;22.60;20.40;;;27.12;15.65;103193.38;5004321;28;20203;-50
2022/03/21 09:38:17;;;;;;;13.93;12.53;;;22.70;20.50;;;27.01;16.56;103197.63;5010948;28;20257;-52
2022/03/21 09:40:46;;;;;;;13.83;12.43;;;22.80;20.60;;;26.97;16.17;103206.44;5011290;28;20201;-57
2022/03/21 09:43:37;;;;;;;13.07;11.80;;;22.80;20.40;;;27.03;16.23;103200.94;5002717;28;20254;-52
2022/03/21 09:46:10;;;;;;;14.13;12.73;;;22.80;20.40;;;27.03;16.40;103202.84;5011870;28;20191;-53
2022/03/21 09:48:38;;;;;;;13.03;11.73;;;22.90;20.60;;;27.39;16.23;103205.56;5012481;28;20517;-51
2022/03/21 09:51:09;;;;;;;13.13;11.90;;;23.00;20.80;;;27.93;16.15;103205.50;5014879;28;20218;-49
2022/03/21 09:53:39;;;;;;;14.20;12.80;;;23.20;21.10;;;28.47;15.53;103203.69;5002274;28;20223;-52
2022/03/21 09:56:08;;;;;;;14.33;12.03;;;23.40;20.40;;;28.73;15.03;103203.28;4998196;28;20737;-55
2022/03/21 09:58:37;;;;;;;14.20;12.80;;;23.60;20.50;;;28.97;14.95;103198.66;4991012;28;20727;-51
2022/03/21 10:01:08;;;;;;;12.53;11.40;;;23.80;20.30;;;29.11;15.22;103198.19;4996706;28;20215;-50
2022/03/21 10:03:53;;;;;;;12.57;11.47;;;24.00;20.20;;;29.38;14.67;103191.19;4998414;28;20629;-52
2022/03/21 10:06:29;;;;;;;13.80;12.43;;;24.20;20.20;;;29.71;14.38;103195.94;4994920;28;20210;-50
2022/03/21 10:09:20;;;;;;;13.37;12.13;;;24.40;20.10;;;29.91;14.71;103195.50;4994195;28;20296;-51
2022/03/21 10:11:51;;;;;;;13.17;11.77;;;24.70;19.90;;;30.02;14.76;103187.31;4985393;28;20207;-55
2022/03/21 10:14:29;;;;;;;13.90;12.60;;;24.90;19.80;;;30.10;13.89;103180.66;4993659;28;20192;-54
2022/03/21 10:17:00;;;;;;;14.17;12.77;;;25.10;19.40;;;30.42;13.74;103176.34;4999206;28;20709;-50
2022/03/21 10:19:43;;;;;;;18.20;16.33;;;25.30;19.60;;;30.91;14.18;103179.28;4994697;28;20206;-53
2022/03/21 10:22:14;;;;;;;14.47;13.13;;;25.50;19.50;;;31.35;13.94;103180.97;4983588;28;20214;-51
2022/03/21 10:24:45;;;;;;;13.00;11.70;;;25.80;19.50;;;31.49;13.12;103186.88;4993364;28;20223;-53
2022/03/21 10:27:31;;;;;;;14.17;12.97;;;26.10;18.90;;;31.49;13.97;103190.44;4978913;28;20231;-51
2022/03/21 10:30:06;;;;;;;13.70;12.40;;;26.30;19.00;;;31.71;13.73;103180.34;4998502;28;20199;-56
2022/03/21 10:32:40;;;;;;;14.17;12.63;;;26.40;18.70;;;31.90;13.35;103191.69;4992216;28;20223;-51
2022/03/21 10:35:14;;;;;;;14.30;13.03;;;26.60;18.00;;;32.17;13.07;103187.06;4998080;28;20218;-55